Time;durP1;ratioP1;P1;durP2;ratioP2;P2;SDS_P1;SDS_P2;PMS_P1;PMS_P2;Temp;Humidity;BMP_temperature;BMP_pressure;BME280_temperature;BME280_humidity;BME280_pressure;Samples;Min_cycle;Max_cycle;Signal;HPM_P1;HPM_P2
2023/03/22 00:01:24;;;;;;;;;;;;;;;16.11;100.00;100812.25;4988766;28;19914;-52
2023/03/22 00:03:50;;;;;;;;;;;;;;;16.24;100.00;100822.00;4982254;28;19914;-52
2023/03/22 00:06:16;;;;;;;;;;;;;;;16.00;100.00;100800.38;4971533;28;19914;-54
2023/03/22 00:08:42;;;;;;;;;;;;;;;16.13;100.00;100802.03;4992690;28;19921;-53
2023/03/22 00:11:09;;;;;;;;;;;;;;;15.96;100.00;100804.59;4988243;28;19914;-55
2023/03/22 00:13:36;;;;;;;;;;;;;;;16.34;100.00;100796.06;4982843;28;19918;-50
2023/03/22 00:16:03;;;;;;;;;;;;;;;16.06;100.00;100794.06;4984825;28;19918;-52
2023/03/22 00:18:29;;;;;;;;;;;;;;;16.01;100.00;100794.75;4980781;28;19982;-52
2023/03/22 00:20:56;;;;;;;;;;;;;;;15.98;100.00;100797.91;4989188;28;19947;-54
2023/03/22 00:23:22;;;;;;;;;;;;;;;15.73;100.00;100790.81;4990363;28;19914;-54
2023/03/22 00:25:48;;;;;;;;;;;;;;;15.81;100.00;100789.66;4989693;28;19936;-54
2023/03/22 00:28:15;;;;;;;;;;;;;;;16.01;100.00;100794.75;4989451;28;19918;-50
2023/03/22 00:30:41;;;;;;;;;;;;;;;16.02;100.00;100779.41;4983743;28;19956;-51
2023/03/22 00:33:07;;;;;;;;;;;;;;;15.68;100.00;100781.75;4983949;28;19940;-53
2023/03/22 00:35:32;;;;;;;;;;;;;;;15.58;100.00;100776.97;4994635;28;19993;-52
2023/03/22 00:38:05;;;;;;;;;;;;;;;15.72;100.00;100781.06;4989900;28;20243;-54
2023/03/22 00:40:32;;;;;;;;;;;;;;;15.68;100.00;100768.28;4990929;28;19914;-53
2023/03/22 00:42:57;;;;;;;;;;;;;;;15.74;100.00;100772.78;4989613;28;19915;-52
2023/03/22 00:45:23;;;;;;;;;;;;;;;15.54;100.00;100771.19;4992632;28;19921;-50
2023/03/22 00:47:48;;;;;;;;;;;;;;;15.67;100.00;100761.25;5009490;28;19920;-55
2023/03/22 00:50:16;;;;;;;;;;;;;;;15.62;100.00;100760.06;4994691;28;19913;-54
2023/03/22 00:52:41;;;;;;;;;;;;;;;15.66;100.00;100759.59;4992497;28;19960;-50
2023/03/22 00:55:07;;;;;;;;;;;;;;;15.84;100.00;100758.72;4990506;28;19914;-51
2023/03/22 00:57:32;;;;;;;;;;;;;;;15.94;100.00;100755.47;4991010;28;19944;-51
2023/03/22 00:59:58;;;;;;;;;;;;;;;16.23;100.00;100744.81;5007472;28;19933;-52
2023/03/22 01:02:28;;;;;;;;;;;;;;;16.16;100.00;100744.91;4987215;28;19920;-55
2023/03/22 01:04:54;;;;;;;;;;;;;;;15.63;100.00;100742.84;4992981;28;19915;-51
2023/03/22 01:07:22;;;;;;;;;;;;;;;15.49;100.00;100733.34;5000369;28;19941;-51
2023/03/22 01:09:49;;;;;;;;;;;;;;;15.68;100.00;100733.22;4997771;28;19914;-50
2023/03/22 01:12:14;;;;;;;;;;;;;;;16.04;100.00;100724.16;5001443;28;19915;-52
2023/03/22 01:14:40;;;;;;;;;;;;;;;15.85;100.00;100719.91;4989519;28;19929;-55
2023/03/22 01:17:06;;;;;;;;;;;;;;;15.61;100.00;100720.69;4997701;28;19922;-54
2023/03/22 01:19:32;;;;;;;;;;;;;;;15.81;100.00;100718.75;4993877;28;19914;-50
2023/03/22 01:21:58;;;;;;;;;;;;;;;16.23;100.00;100712.44;4999350;28;19914;-53
2023/03/22 01:24:23;;;;;;;;;;;;;;;16.06;100.00;100702.34;4989938;28;19936;-49
2023/03/22 01:26:49;;;;;;;;;;;;;;;15.92;100.00;100699.06;4989378;28;19941;-48
2023/03/22 01:29:14;;;;;;;;;;;;;;;15.86;100.00;100690.00;4990599;28;19936;-54
2023/03/22 01:31:41;;;;;;;;;;;;;;;15.88;100.00;100681.69;4989699;28;19910;-51
2023/03/22 01:34:06;;;;;;;;;;;;;;;16.19;100.00;100677.81;4988424;28;19992;-52
2023/03/22 01:36:32;;;;;;;;;;;;;;;15.97;100.00;100674.91;4988927;28;19918;-53
2023/03/22 01:38:58;;;;;;;;;;;;;;;15.69;100.00;100668.31;5003187;28;19919;-53
2023/03/22 01:41:24;;;;;;;;;;;;;;;15.99;100.00;100658.50;4993075;28;19982;-52
2023/03/22 01:44:16;;;;;;;;;;;;;;;15.91;100.00;100649.72;4995555;28;19956;-54
2023/03/22 01:46:43;;;;;;;;;;;;;;;15.51;100.00;100650.38;4996248;28;20354;-51
2023/03/22 01:49:14;;;;;;;;;;;;;;;15.47;100.00;100654.59;4995458;28;19914;-55
2023/03/22 01:51:40;;;;;;;;;;;;;;;15.68;100.00;100645.09;4992610;28;20014;-52
2023/03/22 01:54:39;;;;;;;;;;;;;;;15.86;100.00;100630.69;5003708;28;19914;-52
2023/03/22 01:57:18;;;;;;;;;;;;;;;16.00;100.00;100614.28;4999727;28;19926;-56
2023/03/22 01:59:45;;;;;;;;;;;;;;;16.11;100.00;100621.53;5005218;28;19921;-52
2023/03/22 02:02:33;;;;;;;;;;;;;;;15.87;100.00;100615.34;4979649;28;19945;-51
2023/03/22 02:05:11;;;;;;;;;;;;;;;15.62;100.00;100614.50;5002144;28;19921;-55
2023/03/22 02:07:38;;;;;;;;;;;;;;;16.09;100.00;100610.16;4986387;28;19918;-55
2023/03/22 02:10:08;;;;;;;;;;;;;;;15.93;100.00;100597.44;4994104;28;19914;-53
2023/03/22 02:13:14;;;;;;;;;;;;;;;16.06;100.00;100597.16;4994156;28;19914;-52
2023/03/22 02:15:54;;;;;;;;;;;;;;;15.82;100.00;100607.13;4996722;28;19929;-54
2023/03/22 02:19:01;;;;;;;;;;;;;;;15.67;100.00;100594.13;4994964;28;19930;-51
2023/03/22 02:21:45;;;;;;;;;;;;;;;15.91;100.00;100595.78;4987900;28;19924;-52
2023/03/22 02:24:24;;;;;;;;;;;;;;;15.68;100.00;100596.59;4991915;28;19984;-50
2023/03/22 02:26:59;;;;;;;;;;;;;;;15.93;100.00;100598.22;5000127;28;19921;-54
2023/03/22 02:29:44;;;;;;;;;;;;;;;16.27;100.00;100597.56;4995282;28;19967;-53
2023/03/22 02:32:28;;;;;;;;;;;;;;;16.02;100.00;100593.28;5009995;28;19921;-51
2023/03/22 02:35:03;;;;;;;;;;;;;;;15.84;100.00;100584.25;4994421;28;19977;-49
2023/03/22 02:37:36;;;;;;;;;;;;;;;16.15;100.00;100593.03;4988818;28;19918;-53
2023/03/22 02:40:07;;;;;;;;;;;;;;;16.17;100.00;100582.81;4988470;28;19914;-51
2023/03/22 02:42:45;;;;;;;;;;;;;;;16.11;100.00;100586.47;4986458;28;19922;-55
2023/03/22 02:45:16;;;;;;;;;;;;;;;16.37;100.00;100581.56;4999587;28;19914;-51
2023/03/22 02:47:58;;;;;;;;;;;;;;;16.20;100.00;100574.25;4998284;28;19939;-52
2023/03/22 02:50:27;;;;;;;;;;;;;;;16.18;100.00;100583.63;4991477;28;19914;-53
2023/03/22 02:52:59;;;;;;;;;;;;;;;16.06;100.00;100567.47;4989544;28;19946;-52
2023/03/22 02:55:30;;;;;;;;;;;;;;;16.36;100.00;100561.03;4989118;28;19914;-52
2023/03/22 02:58:02;;;;;;;;;;;;;;;16.28;100.00;100551.47;4985464;28;19941;-49
2023/03/22 03:00:30;;;;;;;;;;;;;;;16.49;100.00;100551.81;5010897;28;19915;-53
2023/03/22 03:02:58;;;;;;;;;;;;;;;16.04;100.00;100545.31;4989137;28;19914;-52
2023/03/22 03:05:25;;;;;;;;;;;;;;;15.78;100.00;100544.78;4987131;28;19914;-52
2023/03/22 03:07:54;;;;;;;;;;;;;;;16.38;100.00;100539.22;5000737;28;19920;-53
2023/03/22 03:10:21;;;;;;;;;;;;;;;16.53;100.00;100544.06;5009070;28;19964;-51
2023/03/22 03:12:47;;;;;;;;;;;;;;;16.05;100.00;100534.31;5003230;28;19953;-52
2023/03/22 03:15:17;;;;;;;;;;;;;;;16.15;100.00;100531.00;5000327;28;19925;-51
2023/03/22 03:18:01;;;;;;;;;;;;;;;16.18;100.00;100541.28;4985931;28;20386;-53
2023/03/22 03:20:29;;;;;;;;;;;;;;;16.14;100.00;100533.91;5004855;28;19917;-53
2023/03/22 03:22:58;;;;;;;;;;;;;;;16.40;100.00;100543.31;4993057;28;19936;-54
2023/03/22 03:25:26;;;;;;;;;;;;;;;16.55;100.00;100544.66;4997814;28;19948;-53
2023/03/22 03:28:00;;;;;;;;;;;;;;;16.18;100.00;100546.69;4995680;28;19921;-55
2023/03/22 03:30:32;;;;;;;;;;;;;;;16.17;100.00;100546.91;4988481;28;19936;-50
2023/03/22 03:32:59;;;;;;;;;;;;;;;16.42;100.00;100545.75;4986420;28;19914;-53
2023/03/22 03:35:42;;;;;;;;;;;;;;;16.30;100.00;100543.94;4990797;28;19914;-54
2023/03/22 03:38:12;;;;;;;;;;;;;;;16.63;100.00;100546.97;4989547;28;19939;-53
2023/03/22 03:40:44;;;;;;;;;;;;;;;16.32;100.00;100552.63;4995314;28;19972;-54
2023/03/22 03:43:11;;;;;;;;;;;;;;;16.28;100.00;100550.63;4985727;28;19963;-54
2023/03/22 03:45:36;;;;;;;;;;;;;;;15.99;100.00;100543.34;4985912;28;19925;-53
2023/03/22 03:48:05;;;;;;;;;;;;;;;16.47;100.00;100543.97;4988657;28;19907;-52
2023/03/22 03:50:30;;;;;;;;;;;;;;;16.45;100.00;100553.38;4988438;28;19946;-52
2023/03/22 03:52:56;;;;;;;;;;;;;;;16.14;100.00;100561.69;4996884;28;20039;-52
2023/03/22 03:55:22;;;;;;;;;;;;;;;16.12;100.00;100553.03;5000085;28;19906;-55
2023/03/22 03:57:48;;;;;;;;;;;;;;;16.30;100.00;100540.41;4999126;28;19953;-55
2023/03/22 04:00:13;;;;;;;;;;;;;;;16.05;100.00;100542.41;5003503;28;19922;-50
2023/03/22 04:02:39;;;;;;;;;;;;;;;16.04;100.00;100548.03;4987522;28;19941;-55
2023/03/22 04:05:06;;;;;;;;;;;;;;;16.37;100.00;100535.69;4991653;28;19989;-52
2023/03/22 04:07:32;;;;;;;;;;;;;;;16.31;100.00;100534.78;5007784;28;19936;-53
2023/03/22 04:09:58;;;;;;;;;;;;;;;16.42;100.00;100538.50;4998530;28;19929;-52
2023/03/22 04:12:30;;;;;;;;;;;;;;;16.15;100.00;100535.56;5001414;28;19961;-51
2023/03/22 04:15:11;;;;;;;;;;;;;;;16.16;100.00;100526.41;5004575;28;19914;-50
2023/03/22 04:17:38;;;;;;;;;;;;;;;16.06;100.00;100535.09;4996399;28;19922;-51
2023/03/22 04:20:05;;;;;;;;;;;;;;;16.11;100.00;100537.09;4995630;28;19924;-53
2023/03/22 04:22:33;;;;;;;;;;;;;;;15.71;100.00;100538.69;5016286;28;19948;-52
2023/03/22 04:25:02;;;;;;;;;;;;;;;16.11;100.00;100540.59;5008310;28;19929;-50
2023/03/22 04:27:28;;;;;;;;;;;;;;;16.25;100.00;100537.63;4988498;28;19925;-49
2023/03/22 04:30:00;;;;;;;;;;;;;;;16.31;100.00;100536.66;4988129;28;19926;-52
2023/03/22 04:32:55;;;;;;;;;;;;;;;16.17;100.00;100523.47;4989190;28;19920;-49
2023/03/22 04:35:30;;;;;;;;;;;;;;;16.10;100.00;100530.06;4998791;28;19914;-51
2023/03/22 04:37:58;;;;;;;;;;;;;;;16.07;100.00;100523.25;4984562;28;20456;-52
2023/03/22 04:40:27;;;;;;;;;;;;;;;16.23;100.00;100518.16;4987565;28;19920;-52
2023/03/22 04:43:02;;;;;;;;;;;;;;;16.34;100.00;100510.03;4991961;28;19940;-52
2023/03/22 04:45:45;;;;;;;;;;;;;;;16.23;100.00;100523.56;5007941;28;19914;-52
2023/03/22 04:48:13;;;;;;;;;;;;;;;16.37;100.00;100527.59;4995252;28;19993;-53
2023/03/22 04:50:39;;;;;;;;;;;;;;;16.23;100.00;100518.16;4987290;28;19921;-52
2023/03/22 04:53:04;;;;;;;;;;;;;;;16.37;100.00;100511.41;4992412;28;19952;-52
2023/03/22 04:55:32;;;;;;;;;;;;;;;16.24;100.00;100506.31;5014424;28;19913;-52
2023/03/22 04:57:59;;;;;;;;;;;;;;;15.97;100.00;100507.69;4996870;28;19969;-49
2023/03/22 05:00:25;;;;;;;;;;;;;;;16.16;100.00;100500.25;4994570;28;19975;-52
2023/03/22 05:02:52;;;;;;;;;;;;;;;16.01;100.00;100498.06;4987651;28;20446;-52
2023/03/22 05:05:51;;;;;;;;;;;;;;;15.97;100.00;100502.31;4985291;28;19920;-51
2023/03/22 05:08:18;;;;;;;;;;;;;;;15.99;100.00;100505.56;4988685;28;19921;-53
2023/03/22 05:10:46;;;;;;;;;;;;;;;16.03;100.00;100500.53;4994012;28;19922;-52
2023/03/22 05:13:11;;;;;;;;;;;;;;;16.15;100.00;100497.78;5004143;28;19934;-53
2023/03/22 05:15:41;;;;;;;;;;;;;;;16.10;100.00;100498.50;4986683;28;19924;-52
2023/03/22 05:18:08;;;;;;;;;;;;;;;15.97;100.00;100496.91;4982549;28;19914;-52
2023/03/22 05:20:36;;;;;;;;;;;;;;;16.17;100.00;100496.50;4996661;28;19922;-51
2023/03/22 05:23:09;;;;;;;;;;;;;;;15.95;100.00;100496.34;5003568;28;19933;-51
2023/03/22 05:25:35;;;;;;;;;;;;;;;15.67;100.00;100488.97;4992095;28;19926;-54
2023/03/22 05:28:02;;;;;;;;;;;;;;;15.88;100.00;100487.53;4991468;28;19929;-55
2023/03/22 05:30:35;;;;;;;;;;;;;;;15.74;100.00;100495.88;4998242;28;19908;-50
2023/03/22 05:33:13;;;;;;;;;;;;;;;15.83;100.00;100501.72;5020850;28;19913;-55
2023/03/22 05:35:43;;;;;;;;;;;;;;;16.04;100.00;100488.69;4984682;28;19914;-52
2023/03/22 05:38:10;;;;;;;;;;;;;;;15.75;100.00;100491.34;4972238;28;19918;-51
2023/03/22 05:40:39;;;;;;;;;;;;;;;15.72;100.00;100491.81;4997165;28;19913;-50
2023/03/22 05:43:05;;;;;;;;;;;;;;;15.74;100.00;100489.69;4988660;28;19949;-54
2023/03/22 05:45:31;;;;;;;;;;;;;;;15.49;100.00;100494.31;4989244;28;19925;-54
2023/03/22 05:48:05;;;;;;;;;;;;;;;15.99;100.00;100488.59;5000707;28;19914;-53
2023/03/22 05:50:31;;;;;;;;;;;;;;;15.88;100.00;100488.38;4978338;28;19922;-51
2023/03/22 05:52:58;;;;;;;;;;;;;;;15.69;100.00;100476.13;4988562;28;19926;-51
2023/03/22 05:55:46;;;;;;;;;;;;;;;15.75;100.00;100480.53;4991444;28;19921;-52
2023/03/22 05:58:11;;;;;;;;;;;;;;;15.42;100.00;100490.91;4974047;28;19914;-53
2023/03/22 06:00:39;;;;;;;;;;;;;;;15.66;100.00;100479.25;4990870;28;19914;-54
2023/03/22 06:03:19;;;;;;;;;;;;;;;15.68;100.00;100477.16;4991548;28;19914;-51
2023/03/22 06:05:53;;;;;;;;;;;;;;;15.76;100.00;100479.50;4998742;28;20404;-53
2023/03/22 06:08:25;;;;;;;;;;;;;;;15.76;100.00;100485.69;4979762;28;19914;-51
2023/03/22 06:10:50;;;;;;;;;;;;;;;15.71;100.00;100472.09;4990298;28;19973;-54
2023/03/22 06:13:16;;;;;;;;;;;;;;;15.48;100.00;100478.38;4987225;28;19921;-55
2023/03/22 06:15:42;;;;;;;;;;;;;;;15.53;100.00;100470.41;4993085;28;19914;-53
2023/03/22 06:18:12;;;;;;;;;;;;;;;15.57;100.00;100466.16;4978835;28;19925;-50
2023/03/22 06:20:41;;;;;;;;;;;;;;;15.58;100.00;100477.78;4994823;28;19957;-54
2023/03/22 06:23:17;;;;;;;;;;;;;;;15.63;100.00;100473.28;5009330;28;19914;-56
2023/03/22 06:25:45;;;;;;;;;;;;;;;15.57;100.00;100476.94;4992831;28;19922;-54
2023/03/22 06:28:10;;;;;;;;;;;;;;;15.68;100.00;100477.16;4991006;28;19940;-51
2023/03/22 06:30:38;;;;;;;;;;;;;;;15.67;100.00;100480.91;4992052;28;19940;-51
2023/03/22 06:33:26;;;;;;;;;;;;;;;15.34;100.00;100472.44;4981613;28;19918;-50
2023/03/22 06:35:59;;;;;;;;;;;;;;;15.46;100.00;100480.50;5009145;28;19984;-50
2023/03/22 06:38:31;;;;;;;;;;;;;;;15.63;100.00;100480.56;5001294;28;19949;-52
2023/03/22 06:40:57;;;;;;;;;;;;;;;15.98;100.00;100479.66;4996162;28;19914;-52
2023/03/22 06:43:23;;;;;;;;;;;;;;;16.02;100.00;100480.81;4993708;28;19918;-54
2023/03/22 06:45:53;;;;;;;;;;;;;;;16.36;100.00;100476.56;4989900;28;19923;-52
2023/03/22 06:48:24;;;;;;;;;;;;;;;15.85;100.00;100477.25;4989447;28;19914;-54
2023/03/22 06:50:58;;;;;;;;;;;;;;;16.05;100.00;100484.91;5003492;28;19910;-52
2023/03/22 06:53:29;;;;;;;;;;;;;;;16.00;100.00;100479.44;4994022;28;19914;-50
2023/03/22 06:55:55;;;;;;;;;;;;;;;16.03;100.00;100482.47;4989436;28;19974;-53
2023/03/22 06:58:22;;;;;;;;;;;;;;;16.12;100.00;100485.59;4989597;28;19918;-54
2023/03/22 07:00:48;;;;;;;;;;;;;;;16.02;100.00;100480.81;4986465;28;19940;-49
2023/03/22 07:03:15;;;;;;;;;;;;;;;16.03;100.00;100495.97;4991223;28;19916;-52
2023/03/22 07:05:45;;;;;;;;;;;;;;;16.20;100.00;100495.19;4987884;28;20064;-54
2023/03/22 07:08:10;;;;;;;;;;;;;;;16.42;100.00;100503.41;4985821;28;19914;-51
2023/03/22 07:10:42;;;;;;;;;;;;;;;16.46;100.00;100485.66;5005537;28;19914;-51
2023/03/22 07:13:08;;;;;;;;;;;;;;;16.12;100.00;100482.88;5003447;28;19924;-52
2023/03/22 07:15:35;;;;;;;;;;;;;;;16.05;100.00;100477.66;4985186;28;19922;-51
2023/03/22 07:18:11;;;;;;;;;;;;;;;16.34;100.00;100498.41;4994771;28;19965;-52
2023/03/22 07:20:39;;;;;;;;;;;;;;;16.37;100.00;100481.72;4990540;28;19918;-54
2023/03/22 07:23:05;;;;;;;;;;;;;;;16.48;100.00;100491.63;4986514;28;19936;-50
2023/03/22 07:25:36;;;;;;;;;;;;;;;16.68;100.00;100493.06;4980623;28;19967;-51
2023/03/22 07:28:22;;;;;;;;;;;;;;;16.26;100.00;100496.09;5000074;28;19991;-52
2023/03/22 07:30:48;;;;;;;;;;;;;;;16.19;100.00;100480.06;4990173;28;20300;-52
2023/03/22 07:33:16;;;;;;;;;;;;;;;16.72;100.00;100483.41;4998414;28;19921;-54
2023/03/22 07:35:42;;;;;;;;;;;;;;;16.66;100.00;100488.94;4991698;28;19937;-52
2023/03/22 07:38:08;;;;;;;;;;;;;;;16.59;100.00;100473.75;4974922;28;19926;-54
2023/03/22 07:40:35;;;;;;;;;;;;;;;16.51;100.00;100494.91;4975730;28;20280;-51
2023/03/22 07:43:01;;;;;;;;;;;;;;;16.70;100.00;100487.38;4994165;28;19933;-53
2023/03/22 07:45:35;;;;;;;;;;;;;;;16.58;100.00;100484.78;4981887;28;19917;-52
2023/03/22 07:48:21;;;;;;;;;;;;;;;16.67;100.00;100479.78;4956779;28;19937;-53
2023/03/22 07:51:10;;;;;;;;;;;;;;;17.14;100.00;100487.56;4990863;28;19937;-50
2023/03/22 07:53:35;;;;;;;;;;;;;;;17.12;100.00;100487.00;4970314;28;19974;-53
2023/03/22 07:56:02;;;;;;;;;;;;;;;16.94;100.00;100488.06;4971187;28;19944;-51
2023/03/22 07:58:28;;;;;;;;;;;;;;;16.65;100.00;100479.22;4997032;28;19918;-53
2023/03/22 08:00:57;;;;;;;;;;;;;;;16.92;100.00;100482.09;4980012;28;19921;-53
2023/03/22 08:04:01;;;;;;;;;;;;;;;16.99;100.00;100490.84;4983614;28;19941;-51
2023/03/22 08:06:42;;;;;;;;;;;;;;;16.86;100.00;100467.69;4997063;28;19920;-51
2023/03/22 08:09:10;;;;;;;;;;;;;;;16.87;100.00;100485.50;4994864;28;19916;-51
2023/03/22 08:11:36;;;;;;;;;;;;;;;16.83;100.00;100507.84;5000892;28;19918;-51
2023/03/22 08:14:01;;;;;;;;;;;;;;;16.91;100.00;100499.34;5035774;28;19921;-54
2023/03/22 08:16:29;;;;;;;;;;;;;;;17.00;100.00;100492.50;5005024;28;19940;-53
2023/03/22 08:18:56;;;;;;;;;;;;;;;16.98;100.00;100485.69;5004899;28;19914;-51
2023/03/22 08:21:24;;;;;;;;;;;;;;;16.92;100.00;100536.09;4996070;28;19918;-54
2023/03/22 08:23:52;;;;;;;;;;;;;;;16.96;100.00;100469.72;5013474;28;19925;-50
2023/03/22 08:26:48;;;;;;;;;;;;;;;17.20;100.00;100491.16;4988036;28;19922;-51
2023/03/22 08:29:21;;;;;;;;;;;;;;;17.10;100.00;100491.03;4999659;28;19919;-50
2023/03/22 08:31:47;;;;;;;;;;;;;;;17.30;100.00;100498.59;4993832;28;19920;-55
2023/03/22 08:34:12;;;;;;;;;;;;;;;17.27;100.00;100494.50;4990262;28;19918;-54
2023/03/22 08:36:38;;;;;;;;;;;;;;;17.46;100.00;100494.22;4985168;28;19926;-54
2023/03/22 08:39:04;;;;;;;;;;;;;;;17.80;100.00;100498.69;5003446;28;19958;-54
2023/03/22 08:41:39;;;;;;;;;;;;;;;17.71;100.00;100491.03;5008355;28;19914;-54
2023/03/22 08:44:05;;;;;;;;;;;;;;;17.54;100.00;100496.50;4989289;28;19978;-51
2023/03/22 08:46:32;;;;;;;;;;;;;;;17.85;100.00;100487.94;5007731;28;19914;-53
2023/03/22 08:48:59;;;;;;;;;;;;;;;17.89;100.00;100487.19;4991492;28;20008;-53
2023/03/22 08:51:30;;;;;;;;;;;;;;;17.34;100.00;100472.72;5013620;28;19960;-50
2023/03/22 08:54:16;;;;;;;;;;;;;;;17.60;100.00;100489.25;4986099;28;19914;-53
2023/03/22 08:56:50;;;;;;;;;;;;;;;17.24;100.00;100507.72;4990323;28;20850;-52
2023/03/22 08:59:28;;;;;;;;;;;;;;;17.45;100.00;100481.78;5007206;28;19914;-54
2023/03/22 09:02:23;;;;;;;;;;;;;;;17.52;100.00;100487.81;4998115;28;19941;-52
2023/03/22 09:04:48;;;;;;;;;;;;;;;18.54;99.75;100488.41;4994793;28;20299;-54
2023/03/22 09:07:17;;;;;;;;;;;;;;;17.87;100.00;100483.06;5025209;28;19914;-53
2023/03/22 09:09:49;;;;;;;;;;;;;;;17.76;100.00;100476.72;5005578;28;19925;-53
2023/03/22 09:12:15;;;;;;;;;;;;;;;17.68;100.00;100488.00;4989771;28;19913;-56
2023/03/22 09:14:41;;;;;;;;;;;;;;;17.15;100.00;100499.19;4990488;28;19914;-55
2023/03/22 09:17:07;;;;;;;;;;;;;;;17.45;100.00;100481.78;4991369;28;19929;-52
2023/03/22 09:19:33;;;;;;;;;;;;;;;17.64;100.00;100474.16;4993441;28;19925;-52
2023/03/22 09:21:58;;;;;;;;;;;;;;;18.03;100.00;100481.41;4996965;28;19918;-55
2023/03/22 09:24:39;;;;;;;;;;;;;;;17.74;100.00;100473.47;4977582;28;19925;-52
2023/03/22 09:27:04;;;;;;;;;;;;;;;17.31;100.00;100471.34;5007239;28;19917;-55
2023/03/22 09:29:30;;;;;;;;;;;;;;;17.57;100.00;100479.78;4990593;28;19925;-52
2023/03/22 09:31:59;;;;;;;;;;;;;;;17.32;100.00;100478.38;4985103;28;19914;-53
2023/03/22 09:34:30;;;;;;;;;;;;;;;17.54;100.00;100485.69;5002763;28;19914;-52
2023/03/22 09:36:57;;;;;;;;;;;;;;;17.97;100.00;100485.09;4980088;28;19929;-49
2023/03/22 09:39:28;;;;;;;;;;;;;;;17.65;100.00;100477.69;4998584;28;19989;-53
2023/03/22 09:41:59;;;;;;;;;;;;;;;17.68;100.00;100496.94;5013028;28;19929;-55
2023/03/22 09:44:24;;;;;;;;;;;;;;;18.02;99.68;100485.19;5018620;28;19977;-51
2023/03/22 09:46:52;;;;;;;;;;;;;;;17.82;100.00;100497.38;4989420;28;19915;-52
2023/03/22 09:49:20;;;;;;;;;;;;;;;17.50;100.00;100484.53;4986554;28;19913;-53
2023/03/22 09:51:47;;;;;;;;;;;;;;;17.56;100.00;100483.56;4991011;28;20290;-51
2023/03/22 09:54:17;;;;;;;;;;;;;;;17.66;100.00;100482.03;4990477;28;19914;-51
2023/03/22 09:56:45;;;;;;;;;;;;;;;18.01;100.00;100489.78;4983836;28;19915;-54
2023/03/22 09:59:14;;;;;;;;;;;;;;;17.70;100.00;100478.59;4985015;28;19929;-51
2023/03/22 10:02:00;;;;;;;;;;;;;;;17.40;100.00;100489.81;4985325;28;19914;-53
2023/03/22 10:04:32;;;;;;;;;;;;;;;17.59;100.00;100472.22;4987069;28;19914;-53
2023/03/22 10:07:01;;;;;;;;;;;;;;;17.39;100.00;100471.97;4989059;28;19925;-53
2023/03/22 10:09:36;;;;;;;;;;;;;;;17.54;100.00;100485.69;4991242;28;19914;-53
2023/03/22 10:12:04;;;;;;;;;;;;;;;17.58;100.00;100470.59;4985326;28;19939;-52
2023/03/22 10:14:34;;;;;;;;;;;;;;;17.98;100.00;100486.72;4981437;28;19918;-53
2023/03/22 10:17:04;;;;;;;;;;;;;;;17.60;100.00;100479.28;4983599;28;19936;-52
2023/03/22 10:19:34;;;;;;;;;;;;;;;17.48;100.00;100486.66;4985254;28;19983;-52
2023/03/22 10:22:01;;;;;;;;;;;;;;;17.80;100.00;100477.88;4986296;28;19918;-51
2023/03/22 10:24:34;;;;;;;;;;;;;;;17.36;100.00;100477.88;4986288;28;19964;-54
2023/03/22 10:27:00;;;;;;;;;;;;;;;17.08;100.00;100476.94;4987392;28;19925;-54
2023/03/22 10:29:26;;;;;;;;;;;;;;;17.27;100.00;100513.41;4991078;28;19929;-50
2023/03/22 10:31:52;;;;;;;;;;;;;;;17.17;100.00;100480.84;4988586;28;19914;-51
2023/03/22 10:34:22;;;;;;;;;;;;;;;16.77;100.00;100483.47;4987668;28;19914;-56
2023/03/22 10:36:52;;;;;;;;;;;;;;;16.97;100.00;100471.34;4986049;28;19915;-55
2023/03/22 10:39:20;;;;;;;;;;;;;;;16.71;100.00;100467.44;4986049;28;19935;-50
2023/03/22 10:41:46;;;;;;;;;;;;;;;16.22;100.00;100481.47;4986186;28;19914;-55
2023/03/22 10:44:15;;;;;;;;;;;;;;;16.51;100.00;100484.13;4989135;28;19915;-54
2023/03/22 10:46:41;;;;;;;;;;;;;;;16.22;100.00;100468.78;4990025;28;19921;-58
2023/03/22 10:49:11;;;;;;;;;;;;;;;16.12;100.00;100476.69;4987805;28;19914;-52
2023/03/22 10:51:43;;;;;;;;;;;;;;;16.43;100.00;100469.13;4990061;28;19918;-57
2023/03/22 10:54:14;;;;;;;;;;;;;;;16.28;100.00;100477.78;4984414;28;19921;-57
2023/03/22 10:56:40;;;;;;;;;;;;;;;16.43;100.00;100480.75;4993355;28;19917;-56
2023/03/22 10:59:05;;;;;;;;;;;;;;;16.38;100.00;100479.84;4992238;28;19937;-54
2023/03/22 11:01:33;;;;;;;;;;;;;;;16.37;100.00;100479.00;4990928;28;19914;-58
2023/03/22 11:04:07;;;;;;;;;;;;;;;16.33;100.00;100472.47;4990474;28;20004;-55
2023/03/22 11:06:37;;;;;;;;;;;;;;;16.36;100.00;100476.56;4993069;28;19913;-59
2023/03/22 11:09:15;;;;;;;;;;;;;;;16.37;100.00;100489.00;4987993;28;19968;-57
2023/03/22 11:11:46;;;;;;;;;;;;;;;16.67;100.00;100474.38;4984520;28;19914;-58
2023/03/22 11:14:21;;;;;;;;;;;;;;;16.62;100.00;100477.84;4987048;28;19910;-56
2023/03/22 11:16:53;;;;;;;;;;;;;;;16.29;100.00;100472.16;4981838;28;19926;-56
2023/03/22 11:19:25;;;;;;;;;;;;;;;16.52;100.00;100458.75;4984790;28;19918;-56
2023/03/22 11:21:50;;;;;;;;;;;;;;;16.72;100.00;100459.09;4986789;28;19918;-55
2023/03/22 11:24:17;;;;;;;;;;;;;;;16.23;100.00;100483.91;4988046;28;19917;-57
2023/03/22 11:26:59;;;;;;;;;;;;;;;16.49;100.00;100471.69;4987467;28;19914;-54
2023/03/22 11:29:25;;;;;;;;;;;;;;;16.22;100.00;100460.69;4989719;28;19914;-55
2023/03/22 11:31:53;;;;;;;;;;;;;;;16.29;100.00;100466.75;4993231;28;19937;-56
2023/03/22 11:34:20;;;;;;;;;;;;;;;16.20;100.00;100482.53;4987254;28;19915;-55
2023/03/22 11:36:53;;;;;;;;;;;;;;;16.53;100.00;100469.31;4985138;28;19928;-54
2023/03/22 11:39:21;;;;;;;;;;;;;;;16.29;100.00;100474.03;4981243;28;19947;-52
2023/03/22 11:41:46;;;;;;;;;;;;;;;16.38;100.00;100474.44;4981649;28;20361;-53
2023/03/22 11:44:14;;;;;;;;;;;;;;;16.31;100.00;100469.19;4986232;28;19928;-55
2023/03/22 11:46:47;;;;;;;;;;;;;;;16.61;100.00;100473.50;4981820;28;19914;-57
2023/03/22 11:49:14;;;;;;;;;;;;;;;16.50;100.00;100461.72;4980075;28;19921;-57
2023/03/22 11:51:41;;;;;;;;;;;;;;;16.84;100.00;100452.78;4991510;28;19915;-55
2023/03/22 11:54:14;;;;;;;;;;;;;;;16.68;100.00;100449.84;4980405;28;19925;-50
2023/03/22 11:56:42;;;;;;;;;;;;;;;16.55;100.00;100458.25;4985189;28;19936;-55
2023/03/22 11:59:11;;;;;;;;;;;;;;;16.47;100.00;100472.97;4982617;28;19922;-55
2023/03/22 12:01:47;;;;;;;;;;;;;;;16.65;100.00;100447.66;4983938;28;19928;-53
2023/03/22 12:04:16;;;;;;;;;;;;;;;16.54;100.00;100491.72;4982335;28;19937;-53
2023/03/22 12:06:42;;;;;;;;;;;;;;;16.78;100.00;100474.31;4992053;28;20017;-56
2023/03/22 12:09:26;;;;;;;;;;;;;;;16.84;100.00;100469.81;4983941;28;19941;-55
2023/03/22 12:11:54;;;;;;;;;;;;;;;17.10;100.00;100469.41;4979688;28;19929;-55
2023/03/22 12:14:27;;;;;;;;;;;;;;;16.81;100.00;100474.88;4983810;28;19914;-52
2023/03/22 12:16:58;;;;;;;;;;;;;;;17.03;100.00;100473.09;4986283;28;19918;-54
2023/03/22 12:19:36;;;;;;;;;;;;;;;16.85;100.00;100457.94;4988093;28;19923;-50
2023/03/22 12:22:07;;;;;;;;;;;;;;;17.08;100.00;100472.34;4980146;28;19968;-53
2023/03/22 12:24:33;;;;;;;;;;;;;;;17.11;100.00;100471.06;4983133;28;19913;-51
2023/03/22 12:27:05;;;;;;;;;;;;;;;17.11;100.00;100471.84;4984046;28;19933;-53
2023/03/22 12:29:30;;;;;;;;;;;;;;;17.23;100.00;100465.53;4986797;28;19988;-54
2023/03/22 12:31:59;;;;;;;;;;;;;;;17.27;100.00;100462.06;4986489;28;19914;-55
2023/03/22 12:34:31;;;;;;;;;;;;;;;17.37;100.00;100460.59;4983728;28;19914;-52
2023/03/22 12:36:56;;;;;;;;;;;;;;;17.68;100.00;100464.50;4994108;28;19921;-52
2023/03/22 12:39:24;;;;;;;;;;;;;;;17.19;100.00;100457.94;4993743;28;19918;-52
2023/03/22 12:41:52;;;;;;;;;;;;;;;17.05;100.00;100468.25;4999334;28;19914;-54
2023/03/22 12:44:24;;;;;;;;;;;;;;;17.09;100.00;100470.47;4992409;28;19922;-53